createdAt,value
2019-04-10T00:03:33.677Z,11.50
2019-04-10T00:08:36.524Z,12.07
2019-04-10T00:13:39.806Z,12.13
2019-04-10T00:18:42.926Z,12.13
2019-04-10T00:23:47.016Z,12.45
2019-04-10T00:28:50.209Z,12.45
2019-04-10T00:33:53.578Z,11.28
2019-04-10T00:38:57.922Z,13.95
2019-04-10T00:44:01.443Z,10.30
2019-04-10T00:49:05.058Z,13.28
2019-04-10T00:54:08.345Z,11.40
2019-04-10T00:59:12.170Z,10.05
2019-04-10T01:04:15.327Z,11.55
2019-04-10T01:09:19.415Z,10.80
2019-04-10T01:14:23.398Z,11.08
2019-04-10T01:19:26.621Z,10.25
2019-04-10T01:24:30.056Z,9.65
2019-04-10T01:29:33.632Z,9.58
2019-04-10T01:34:37.960Z,11.20
2019-04-10T01:39:42.331Z,12.00
2019-04-10T01:44:46.759Z,10.40
2019-04-10T01:49:50.335Z,11.20
2019-04-10T01:54:53.462Z,11.18
2019-04-10T01:59:56.630Z,10.00
2019-04-10T02:05:00.675Z,11.20
2019-04-10T02:10:05.348Z,10.20
2019-04-10T02:15:11.863Z,10.85
2019-04-10T02:20:14.636Z,11.17
2019-04-10T02:25:18.001Z,9.90
2019-04-10T02:30:21.876Z,10.50
2019-04-10T02:35:25.222Z,11.53
2019-04-10T02:40:28.944Z,10.53
2019-04-10T02:45:32.617Z,10.08
2019-04-10T02:50:37.176Z,11.88
2019-04-10T02:55:40.939Z,11.22
2019-04-10T03:00:44.307Z,10.23
2019-04-10T03:05:48.780Z,11.08
2019-04-10T03:10:56.801Z,10.53
2019-04-10T03:15:57.800Z,9.98
2019-04-10T03:21:01.101Z,11.35
2019-04-10T03:26:04.201Z,10.40
2019-04-10T03:31:07.943Z,9.87
2019-04-10T03:36:11.498Z,9.50
2019-04-10T03:41:15.676Z,10.58
2019-04-10T03:46:19.453Z,10.38
2019-04-10T03:51:22.954Z,10.35
2019-04-10T03:56:26.684Z,12.13
2019-04-10T04:01:29.862Z,10.38
2019-04-10T04:06:33.416Z,10.88
2019-04-10T04:11:37.735Z,10.03
2019-04-10T04:16:41.506Z,9.43
2019-04-10T04:21:44.910Z,10.28
2019-04-10T04:26:48.644Z,7.75
2019-04-10T04:31:52.624Z,8.58
2019-04-10T04:36:56.259Z,8.27
2019-04-10T04:41:59.586Z,9.48
2019-04-10T04:47:03.410Z,8.65
2019-04-10T04:52:06.974Z,11.10
2019-04-10T04:57:10.712Z,9.13
2019-04-10T05:02:14.323Z,9.53
2019-04-10T05:07:17.637Z,9.25
2019-04-10T05:12:20.632Z,9.13
2019-04-10T05:17:24.161Z,9.20
2019-04-10T05:22:28.291Z,9.17
2019-04-10T05:27:31.638Z,8.53
2019-04-10T05:32:35.386Z,9.08
2019-04-10T05:37:38.532Z,9.35
2019-04-10T05:42:41.781Z,9.63
2019-04-10T05:47:44.822Z,9.03
2019-04-10T05:52:48.180Z,7.60
2019-04-10T05:57:51.288Z,8.55
2019-04-10T06:02:54.704Z,9.77
2019-04-10T06:07:59.304Z,8.40
2019-04-10T06:13:02.680Z,9.13
2019-04-10T06:18:06.981Z,10.20
2019-04-10T06:23:11.528Z,8.67
2019-04-10T06:28:14.963Z,9.90
2019-04-10T06:33:18.093Z,9.03
2019-04-10T06:38:21.273Z,8.25
2019-04-10T06:43:25.196Z,6.28
2019-04-10T06:48:28.359Z,8.58
2019-04-10T06:53:31.316Z,6.42
2019-04-10T06:58:34.266Z,8.03
2019-04-10T07:03:49.518Z,8.15
2019-04-10T07:08:46.323Z,7.42
2019-04-10T07:13:47.486Z,6.17
2019-04-10T07:18:51.905Z,7.05
2019-04-10T07:23:58.978Z,6.62
2019-04-10T07:29:00.555Z,6.62
2019-04-10T07:34:03.809Z,7.35
2019-04-10T07:39:07.679Z,7.83
2019-04-10T07:44:12.065Z,6.47
2019-04-10T07:49:17.909Z,8.33
2019-04-10T07:54:21.292Z,8.05
2019-04-10T07:59:25.130Z,6.85
2019-04-10T08:04:29.048Z,7.03
2019-04-10T08:09:33.394Z,7.22
2019-04-10T08:14:37.878Z,6.92
2019-04-10T08:19:41.272Z,6.97
2019-04-10T08:24:46.171Z,7.62
2019-04-10T08:29:49.185Z,7.45
2019-04-10T08:34:52.668Z,7.83
2019-04-10T08:39:56.824Z,7.47
2019-04-10T08:45:00.857Z,7.58
2019-04-10T08:50:05.732Z,7.10
2019-04-10T08:55:10.125Z,7.83
2019-04-10T09:00:14.356Z,7.67
2019-04-10T09:05:17.555Z,7.67
2019-04-10T09:10:20.730Z,7.92
2019-04-10T09:15:25.639Z,8.03
2019-04-10T09:20:28.999Z,7.58
2019-04-10T09:25:33.304Z,8.28
2019-04-10T09:30:37.265Z,7.55
2019-04-10T09:35:41.173Z,8.20
2019-04-10T09:40:44.726Z,7.33
2019-04-10T09:45:48.019Z,8.18
2019-04-10T09:50:52.523Z,7.92
2019-04-10T09:55:56.776Z,7.95
2019-04-10T10:01:01.412Z,8.50
2019-04-10T10:06:04.795Z,7.70
2019-04-10T10:11:08.164Z,8.33
2019-04-10T10:16:11.898Z,7.70
2019-04-10T10:21:14.998Z,8.48
2019-04-10T10:26:19.607Z,7.60
2019-04-10T10:31:24.141Z,7.12
2019-04-10T10:36:36.715Z,8.03
2019-04-10T10:41:33.770Z,7.12
2019-04-10T10:46:37.718Z,7.12
2019-04-10T10:51:40.813Z,9.08
2019-04-10T10:56:44.696Z,9.13
2019-04-10T11:01:48.489Z,8.20
2019-04-10T11:06:59.637Z,8.68
2019-04-10T11:11:57.600Z,7.33
2019-04-10T11:17:01.435Z,7.20
2019-04-10T11:22:07.433Z,7.28
2019-04-10T11:27:11.881Z,7.37
2019-04-10T11:32:15.177Z,7.83
2019-04-10T11:37:27.072Z,7.20
2019-04-10T11:42:23.380Z,7.55
2019-04-10T11:47:26.809Z,7.80
2019-04-10T11:52:36.610Z,8.50
2019-04-10T11:57:35.237Z,6.70
2019-04-10T12:02:39.732Z,7.85
2019-04-10T12:08:29.617Z,7.77
2019-04-10T12:12:48.349Z,7.95
2019-04-10T12:17:52.008Z,7.58
2019-04-10T12:22:56.609Z,8.28
2019-04-10T12:27:59.817Z,7.15
2019-04-10T12:33:03.454Z,7.43
2019-04-10T12:38:09.943Z,7.10
2019-04-10T12:43:12.548Z,7.15
2019-04-10T12:48:16.709Z,7.33
2019-04-10T12:53:19.934Z,8.30
2019-04-10T12:58:23.085Z,7.37
2019-04-10T13:03:27.288Z,7.15
2019-04-10T13:08:47.215Z,7.30
2019-04-10T13:13:35.808Z,7.10
2019-04-10T13:18:39.128Z,7.22
2019-04-10T13:23:42.135Z,8.10
2019-04-10T13:28:45.227Z,7.33
2019-04-10T13:33:49.016Z,7.35
2019-04-10T13:38:52.645Z,7.45
2019-04-10T13:43:55.822Z,7.15
2019-04-10T13:48:59.795Z,6.30
2019-04-10T13:54:03.946Z,8.13
2019-04-10T13:59:07.351Z,6.15
2019-04-10T14:04:11.217Z,6.95
2019-04-10T14:09:32.238Z,7.50
2019-04-10T14:14:24.338Z,7.37
2019-04-10T14:19:29.861Z,5.58
2019-04-10T14:24:41.234Z,7.00
2019-04-10T14:29:38.685Z,7.40
2019-04-10T14:34:42.944Z,7.10
2019-04-10T14:39:47.544Z,7.20
2019-04-10T14:44:51.183Z,7.08
2019-04-10T14:49:55.445Z,6.30
2019-04-10T14:54:59.829Z,7.12
2019-04-10T15:00:04.321Z,7.97
2019-04-10T15:05:08.039Z,7.55
2019-04-10T15:10:12.630Z,7.50
2019-04-10T15:15:17.202Z,7.33
2019-04-10T15:20:20.929Z,7.03
2019-04-10T15:25:24.837Z,7.62
2019-04-10T15:30:28.648Z,7.30
2019-04-10T15:35:32.889Z,6.58
2019-04-10T15:40:36.602Z,7.42
2019-04-10T15:45:40.034Z,7.40
2019-04-10T15:50:43.480Z,7.83
2019-04-10T15:55:47.558Z,8.73
2019-04-10T16:00:51.740Z,7.67
2019-04-10T16:05:55.759Z,8.18
2019-04-10T16:11:10.491Z,7.70
2019-04-10T16:16:35.183Z,8.13
2019-04-10T16:21:38.204Z,7.55
2019-04-10T16:26:41.278Z,8.95
2019-04-10T16:31:44.451Z,7.95
2019-04-10T16:36:47.962Z,8.18
2019-04-10T16:41:52.320Z,8.73
2019-04-10T16:46:55.542Z,7.97
2019-04-10T16:51:59.182Z,7.35
2019-04-10T16:57:02.654Z,7.67
2019-04-10T17:02:05.865Z,7.47
2019-04-10T17:07:09.048Z,8.08
2019-04-10T17:12:12.075Z,8.13
2019-04-10T17:17:15.227Z,8.40
2019-04-10T17:22:30.834Z,8.98
2019-04-10T17:27:23.805Z,8.23
2019-04-10T17:32:27.229Z,8.65
2019-04-10T17:37:31.778Z,10.45
2019-04-10T17:42:34.948Z,10.55
2019-04-10T17:47:38.893Z,9.95
2019-04-10T17:52:42.967Z,9.93
2019-04-10T17:57:47.461Z,11.00
2019-04-10T18:02:51.234Z,10.43
2019-04-10T18:07:54.589Z,10.43
2019-04-10T18:12:58.897Z,10.40
2019-04-10T18:18:03.097Z,10.53
2019-04-10T18:23:07.161Z,11.40
2019-04-10T18:28:11.638Z,10.93
2019-04-10T18:33:15.177Z,11.28
2019-04-10T18:38:19.530Z,10.35
2019-04-10T18:43:22.602Z,11.55
2019-04-10T18:48:26.786Z,11.50
2019-04-10T18:53:30.183Z,11.63
2019-04-10T18:58:43.645Z,11.40
2019-04-10T19:04:02.626Z,13.25
2019-04-10T19:14:09.985Z,12.05
2019-04-10T19:19:12.767Z,12.00
2019-04-10T19:24:17.316Z,11.00
2019-04-10T19:29:21.403Z,10.93
2019-04-10T19:34:25.391Z,9.90
2019-04-10T19:39:28.451Z,11.97
2019-04-10T19:44:31.457Z,10.55
2019-04-10T19:49:35.016Z,11.50
2019-04-10T19:54:38.754Z,10.60
2019-04-10T19:59:42.210Z,9.18
2019-04-10T20:04:45.328Z,8.88
2019-04-10T20:09:48.560Z,10.08
2019-04-10T20:14:51.881Z,9.48
2019-04-10T20:19:56.742Z,10.98
2019-04-10T20:25:00.162Z,10.15
2019-04-10T20:30:04.200Z,9.90
2019-04-10T20:35:07.778Z,10.20
2019-04-10T20:40:11.908Z,10.08
2019-04-10T20:45:15.851Z,9.45
2019-04-10T20:50:19.655Z,10.90
2019-04-10T20:55:23.888Z,10.72
2019-04-10T21:00:32.117Z,10.82
2019-04-10T21:05:35.916Z,10.80
2019-04-10T21:10:39.174Z,10.43
2019-04-10T21:15:42.358Z,11.05
2019-04-10T21:20:45.439Z,10.53
2019-04-10T21:25:49.745Z,11.50
2019-04-10T21:31:20.374Z,11.30
2019-04-10T21:36:24.042Z,10.55
2019-04-10T21:41:27.088Z,10.45
2019-04-10T21:46:30.632Z,10.38
2019-04-10T21:51:34.996Z,10.65
2019-04-10T21:56:38.909Z,9.35
2019-04-10T22:01:42.312Z,9.40
2019-04-10T22:06:53.702Z,9.83
2019-04-10T22:11:58.465Z,9.38
2019-04-10T22:17:02.657Z,10.05
2019-04-10T22:22:06.301Z,9.63
2019-04-10T22:27:09.954Z,10.03
2019-04-10T22:32:14.114Z,9.80
2019-04-10T22:37:17.303Z,8.80
2019-04-10T22:42:22.433Z,8.30
2019-04-10T22:47:25.593Z,9.43
2019-04-10T22:52:28.675Z,10.00
2019-04-10T22:57:31.746Z,9.85
2019-04-10T23:02:35.373Z,10.20
2019-04-10T23:07:38.833Z,11.80
2019-04-10T23:12:52.240Z,11.63
2019-04-10T23:17:48.470Z,10.23
2019-04-10T23:22:52.602Z,13.28
2019-04-10T23:27:56.427Z,11.93
2019-04-10T23:32:59.964Z,10.53
2019-04-10T23:38:03.643Z,10.95
2019-04-10T23:43:12.880Z,11.53
2019-04-10T23:48:12.762Z,11.35
2019-04-10T23:53:16.549Z,10.17
2019-04-10T23:58:19.957Z,8.15
